Latest Coastal Weather Observations for Norfolk Island

IDN60701

Issued at 4:22 pm EDT Thursday 25 February 2021 (issued every 10 minutes, with the page automatically refreshed every 10 minutes)

About coastal observations | Map of coastal stations | Coastal observations for NSW | Marine services | Other Formats
Station Details ID: 200288 Name: NORFOLK ISLAND AERO Lat: -29.04 Lon: 167.94 Height: 111.73 m
Data from the previous 72 hours. | See also: Recent months at Norfolk Island

Observations are collected in the New South Wales time zone (Eastern Standard Time) which includes daylight savings in the summer period. Therefore 'Rain since 9am' totals and other values are based on the New South Wales time zone, which may differ from local time.

Date/Time
EDT
Wind Sea
Height
m
Swell Vis
km
Cloud Weather Temp
°C
Press
MSL
hPa
Rain since
9am
mm
Dir  Spd
kts
Gust
kts
Height
m
Period
s
Dir
25/04:06pm E 15 25 - - - - 10 Partly cloudy - 23.8 1014.0 0.0
25/04:00pm E 17 25 - - - - 10 Partly cloudy - 23.2 1014.0 0.0
25/03:30pm E 16 21 - - - - 10 Cloudy - 23.4 1014.1 0.0
25/03:00pm ESE 15 22 - - - - 10 Cloudy - 23.3 1014.1 0.0
25/02:30pm ESE 15 20 - - - - 10 Cloudy - 23.7 1014.3 0.0
25/02:00pm E 17 24 - - - - 10 Partly cloudy - 24.0 1014.4 0.0
25/01:30pm ESE 15 21 - - - - 10 Partly cloudy - 23.9 1014.6 0.0
25/01:00pm E 17 22 - - - - 10 Partly cloudy - 24.0 1014.7 0.0
25/12:30pm E 16 20 - - - - 10 Cloudy - 24.2 1014.9 0.0
25/12:00pm E 13 17 - - - - 10 Cloudy - 24.6 1015.2 0.0
25/11:30am E 14 21 - - - - 10 Partly cloudy - 24.2 1015.3 0.0
25/11:00am E 17 24 - - - - 10 Cloudy - 24.1 1015.5 0.0
25/10:30am E 17 22 - - - - 10 Partly cloudy - 24.0 1015.7 0.0
25/10:00am E 16 22 - - - - 10 Mostly cloudy - 23.5 1015.8 0.0
25/09:30am ENE 16 21 - - - - 10 Mostly cloudy - 23.9 1015.8 0.0
25/09:00am ENE 16 21 - - - - 10 Mostly cloudy - 24.0 1015.6 0.0
25/08:30am E 14 20 - - - - 10 Mostly cloudy - 23.4 1015.7 0.0
25/08:00am ENE 15 19 - - - - 10 Partly cloudy - 23.5 1015.4 0.0
25/07:30am E 11 16 - - - - 10 Cloudy - 23.1 1015.2 0.0
25/07:00am E 12 17 - - - - 10 Partly cloudy - 22.4 1015.1 0.0
25/06:30am E 11 15 - - - - 10 Partly cloudy - 21.9 1014.9 0.0
25/06:00am E 10 14 - - - - 10 Partly cloudy - 21.7 1014.5 0.0
25/05:30am E 9 12 - - - - 9 Partly cloudy - 21.7 1014.4 0.0
25/05:00am ENE 11 18 - - - - 9 Cloudy - 21.7 1014.0 0.0
25/04:30am ENE 11 15 - - - - 9 Partly cloudy - 21.6 1013.7 0.0
25/04:00am ENE 13 18 - - - - 9 Partly cloudy - 21.7 1013.5 0.0
25/03:30am ENE 11 15 - - - - 9 Partly cloudy - 21.8 1013.6 0.0
25/03:00am ENE 10 16 - - - - 9 Partly cloudy - 21.8 1013.6 0.0
25/02:30am ENE 12 17 - - - - 9 Partly cloudy - 21.8 1013.6 0.0
25/02:00am ENE 12 17 - - - - 9 Cloudy - 21.9 1013.9 0.0
25/01:30am ENE 13 18 - - - - 9 Partly cloudy - 21.8 1014.0 0.0
25/01:00am ENE 13 18 - - - - 9 Cloudy - 21.9 1014.4 0.0
25/12:30am ENE 15 19 - - - - 9 Cloudy - 22.0 1014.3 0.0
25/12:00am ENE 14 20 - - - - 8 Cloudy - 22.0 1014.7 0.0
 
Date/Time
EDT
Wind Sea
Height
m
Swell Vis
km
Cloud Weather Temp
°C
Press
MSL
hPa
Rain since
9am
mm
Dir  Spd
kts
Gust
kts
Height
m
Period
s
Dir
24/11:30pm ENE 12 19 - - - - 8 Cloudy - 22.1 1015.1 0.0
24/11:00pm E 12 16 - - - - 9 Cloudy - 22.1 1015.1 0.0
24/10:30pm ENE 11 16 - - - - 9 Cloudy - 22.2 1015.3 0.0
24/10:00pm E 10 15 - - - - 9 Cloudy - 22.1 1015.4 0.0
24/09:30pm E 9 14 - - - - 10 Cloudy - 22.1 1015.5 0.0
24/09:00pm ENE 9 13 - - - - 10 Cloudy - 22.1 1015.4 0.0
24/08:30pm ENE 12 16 - - - - 10 Partly cloudy - 22.2 1015.3 0.0
24/08:00pm E 11 17 - - - - 10 Cloudy - 22.3 1015.0 0.0
24/07:30pm E 10 15 - - - - 10 Partly cloudy - 22.2 1014.7 0.0
24/07:00pm E 9 12 - - - - 10 Cloudy - 22.2 1014.4 0.0
24/06:30pm ENE 11 15 - - - - 10 Partly cloudy - 22.2 1014.1 0.0
24/06:00pm E 11 15 - - - - 10 Cloudy - 22.4 1013.6 0.0
24/05:30pm ENE 10 13 - - - - 10 Partly cloudy - 22.6 1013.6 0.0
24/05:00pm ENE 13 18 - - - - 9 Cloudy - 22.8 1013.5 0.0
24/04:30pm E 13 18 - - - - 10 Partly cloudy - 23.0 1013.3 0.0
24/04:00pm E 13 17 - - - - 10 Partly cloudy - 23.6 1013.2 0.0
24/03:30pm ENE 13 17 - - - - 10 Partly cloudy - 24.0 1013.5 0.0
24/03:00pm E 13 17 - - - - 10 Cloudy - 23.7 1013.4 0.0
24/02:30pm E 10 15 - - - - 10 Cloudy - 24.1 1013.6 0.0
24/02:00pm E 11 15 - - - - 10 Cloudy - 24.4 1014.0 0.0
24/01:30pm ENE 12 15 - - - - 10 Partly cloudy - 24.5 1014.2 0.0
24/01:20pm E 12 15 - - - - 10 Partly cloudy - 24.5 1014.2 0.0
24/01:00pm E 11 15 - - - - 10 Partly cloudy - 24.6 1014.5 0.0
24/12:30pm E 12 15 - - - - 10 Partly cloudy - 24.5 1014.4 0.0
24/12:00pm ENE 11 16 - - - - 10 Partly cloudy - 24.9 1014.4 0.0
24/11:30am ENE 10 16 - - - - 10 Mostly cloudy - 25.3 1014.6 0.0
24/11:00am ENE 13 18 - - - - 10 Cloudy - 24.4 1014.5 0.0
24/10:30am NE 11 16 - - - - 10 Mostly cloudy - 24.6 1014.5 0.0
24/10:00am ENE 10 15 - - - - 10 Mostly cloudy - 24.6 1014.5 0.0
24/09:30am ENE 11 17 - - - - 10 Partly cloudy - 24.4 1014.5 0.0
24/09:00am ENE 13 18 - - - - 10 Mostly cloudy - 24.2 1014.4 0.0
24/08:30am ENE 12 16 - - - - 10 Mostly cloudy - 23.2 1014.3 0.0
24/08:00am ENE 10 14 - - - - 8 Cloudy - 23.1 1014.0 1.8
24/07:30am ENE 9 14 - - - - 10 Partly cloudy - 22.6 1013.7 1.8
24/07:00am ENE 8 12 - - - - 10 Partly cloudy - 22.3 1013.4 1.8
24/06:31am ENE 8 10 - - - - 9 Partly cloudy - 22.1 1013.4 1.8
24/06:30am ENE 8 10 - - - - 9 Partly cloudy - 22.1 1013.4 1.8
24/06:04am ENE 7 10 - - - - 9 Partly cloudy - 21.9 1013.1 1.8
24/06:00am ENE 8 10 - - - - 9 Partly cloudy - 21.9 1013.0 1.8
24/05:46am ENE 7 8 - - - - 9 Partly cloudy - 21.9 1013.0 1.8
24/05:30am ENE 7 9 - - - - 8 Partly cloudy - 21.9 1012.7 1.8
24/05:29am ENE 7 9 - - - - 8 Partly cloudy - 21.9 1012.8 1.8
24/05:12am ENE 8 10 - - - - 9 Partly cloudy - 22.0 1012.6 1.8
24/05:00am ENE 7 11 - - - - 8 Cloudy Drizzle 21.9 1012.6 1.8
24/04:30am ENE 8 11 - - - - 7 Partly cloudy - 21.9 1012.5 1.8
24/04:15am ENE 7 11 - - - - 8 Partly cloudy - 22.0 1012.5 1.8
24/04:00am ENE 7 10 - - - - 8 Partly cloudy - 22.0 1012.4 1.8
24/03:30am ENE 8 11 - - - - 8 Cloudy - 22.1 1012.5 1.8
24/03:00am ENE 7 9 - - - - 8 Partly cloudy - 22.1 1012.4 1.6
24/02:30am ENE 6 9 - - - - 8 Partly cloudy - 22.2 1012.7 1.6
24/02:27am NE 6 8 - - - - 8 Partly cloudy - 22.2 1012.7 1.6
24/02:00am ENE 7 10 - - - - 8 Cloudy Showers 22.1 1012.6 1.6
24/01:30am ENE 8 12 - - - - 8 Partly cloudy - 22.2 1012.8 1.6
24/01:11am ENE 9 13 - - - - 8 Partly cloudy - 22.2 1012.9 1.6
24/01:00am ENE 8 12 - - - - 8 Partly cloudy - 22.2 1013.0 1.6
24/12:30am ENE 8 11 - - - - 8 Cloudy - 22.2 1013.0 1.6
24/12:00am ENE 8 11 - - - - 8 Cloudy - 22.3 1013.1 1.6
 
Date/Time
EDT
Wind Sea
Height
m
Swell Vis
km
Cloud Weather Temp
°C
Press
MSL
hPa
Rain since
9am
mm
Dir  Spd
kts
Gust
kts
Height
m
Period
s
Dir
23/11:30pm NE 9 13 - - - - 7 Cloudy - 22.3 1013.3 1.6
23/11:00pm ENE 9 13 - - - - 7 Cloudy Rain 22.2 1013.3 1.6
23/10:30pm NE 9 14 - - - - 7 Cloudy - 22.3 1013.4 1.6
23/10:21pm NE 8 11 - - - - 7 Partly cloudy - 22.3 1013.5 1.6
23/10:11pm ENE 9 14 - - - - 6 Cloudy - 22.4 1013.5 1.6
23/10:00pm NE 8 10 - - - - 7 Cloudy - 22.4 1013.6 1.6
23/09:30pm ENE 8 12 - - - - 7 Cloudy - 22.4 1013.6 1.6
23/09:00pm NE 7 10 - - - - 7 Partly cloudy - 22.4 1013.7 1.6
23/08:59pm NE 7 10 - - - - 7 Partly cloudy - 22.4 1013.7 1.6
23/08:40pm NE 9 14 - - - - 6 Partly cloudy - 22.4 1013.6 1.6
23/08:30pm NE 9 14 - - - - 7 Partly cloudy - 22.4 1013.5 1.6
23/08:00pm ENE 11 17 - - - - 7 Cloudy - 22.3 1013.2 1.6
23/07:30pm ENE 11 15 - - - - 7 Partly cloudy - 22.2 1013.2 1.6
23/07:00pm ENE 10 15 - - - - 7 Partly cloudy - 22.2 1012.9 1.6
23/06:30pm NE 6 9 - - - - 10 Partly cloudy - 22.1 1012.5 1.6
23/06:15pm NE 8 14 - - - - 9 Partly cloudy - 22.0 1012.5 1.6
23/06:00pm NE 9 14 - - - - 8 Partly cloudy - 22.3 1012.4 1.6
23/05:55pm NE 10 14 - - - - 8 Partly cloudy - 22.1 1012.3 1.6
23/05:53pm NE 10 14 - - - - 8 Partly cloudy - 22.0 1012.3 1.6
23/05:38pm ENE 7 10 - - - - 6 Partly cloudy - 22.2 1012.3 1.6
23/05:30pm ENE 6 8 - - - - 8 Partly cloudy - 22.1 1012.2 1.6
23/05:23pm ENE 7 9 - - - - 9 Partly cloudy - 22.0 1012.2 1.6
23/05:00pm ENE 6 8 - - - - 10 Cloudy Drizzle 21.9 1012.2 1.4
23/04:30pm NE 11 19 - - - - 10 Partly cloudy - 21.7 1012.1 1.4
23/04:00pm NE 9 14 - - - - 9 Partly cloudy - 21.7 1012.1 1.2
23/03:30pm NE 10 16 - - - - 10 Partly cloudy - 21.8 1012.2 1.2
23/03:00pm NE 11 16 - - - - 6 Partly cloudy - 22.0 1012.4 1.2
23/02:30pm NE 10 16 - - - - 6 Mostly clear Showers 22.1 1012.8 0.8
23/02:00pm NE 9 14 - - - - 7 Cloudy Showers 22.4 1013.0 0.6
23/01:30pm NNE 10 15 - - - - 6 Partly cloudy Showers 22.9 1013.3 0.0
23/01:00pm NE 9 14 - - - - 6 Mostly clear - 23.2 1013.3 0.0
23/12:30pm NNE 13 21 - - - - 6 Partly cloudy - 23.4 1013.1 0.0
23/12:00pm NE 12 18 - - - - 6 Mostly clear - 23.4 1013.0 0.0
23/11:48am NE 13 17 - - - - 6 Partly cloudy Showers 23.8 1013.2 0.0
23/11:30am NE 14 19 - - - - 10 Mostly clear - 23.9 1013.4 0.0
23/11:00am NE 14 22 - - - - 9 Cloudy - 24.5 1013.4 0.0
23/10:30am NE 13 21 - - - - 9 Mostly clear - 24.0 1013.6 0.0
23/10:00am NE 13 18 - - - - 9 Mostly clear - 23.6 1013.7 0.0
23/09:30am NE 12 19 - - - - 9 Mostly cloudy - 23.4 1013.6 0.0
23/09:00am NE 13 19 - - - - 9 Mostly cloudy - 23.6 1013.4 0.0
23/08:30am NE 16 21 - - - - 9 Mostly clear - 23.2 1013.0 0.0
23/08:00am NE 16 22 - - - - 9 Cloudy - 23.2 1012.8 3.2
23/07:30am NE 13 18 - - - - 8 Cloudy - 22.9 1012.9 3.2
23/07:00am NE 14 20 - - - - 8 Cloudy - 22.8 1012.7 3.2
23/06:30am NE 15 22 - - - - 8 Cloudy - 22.8 1012.4 3.2
23/06:00am NE 15 22 - - - - 8 Cloudy - 22.6 1012.2 3.2
23/05:44am NE 15 22 - - - - 7 Cloudy - 22.5 1012.1 3.2
23/05:30am NE 15 22 - - - - 6 Partly cloudy - 22.4 1012.1 3.2
23/05:25am NE 15 22 - - - - 6 Cloudy - 22.4 1012.1 3.2
23/05:21am NE 15 22 - - - - 7 Cloudy - 22.5 1012.0 3.2
23/05:02am NE 15 21 - - - - 6 Cloudy - 22.5 1011.9 3.2
23/05:00am NE 15 21 - - - - 7 Mostly cloudy Showers 22.5 1011.9 3.2
23/04:30am NE 12 20 - - - - 8 Cloudy - 22.7 1012.0 3.0
23/04:18am NE 13 21 - - - - 7 Cloudy - 22.7 1012.0 3.0
23/04:05am NE 12 19 - - - - 6 Cloudy - 22.7 1012.0 3.0
23/04:00am NE 13 19 - - - - 7 Cloudy - 22.7 1012.0 3.0
23/03:30am NE 11 16 - - - - 8 Cloudy - 22.8 1012.0 3.0
23/03:00am NE 14 19 - - - - 5 Cloudy - 22.8 1012.0 2.8
23/02:50am NE 12 19 - - - - 6 Cloudy - 23.0 1012.1 2.8
23/02:30am NE 13 19 - - - - 8 Cloudy - 23.0 1012.1 2.8
23/02:15am NE 12 18 - - - - 8 Cloudy - 23.0 1012.2 2.8
23/02:00am NE 13 20 - - - - 8 Cloudy - 23.1 1012.2 2.8
23/01:30am NE 14 20 - - - - 9 Cloudy - 23.1 1012.3 2.8
23/01:25am NE 13 18 - - - - 9 Cloudy - 23.1 1012.4 2.8
23/01:00am NE 13 18 - - - - 8 Cloudy - 23.1 1012.7 2.8
23/12:30am NE 13 20 - - - - 7 Cloudy - 23.1 1012.9 2.8
23/12:00am NE 14 20 - - - - 8 Cloudy - 23.1 1013.0 2.8
 
Date/Time
EDT
Wind Sea
Height
m
Swell Vis
km
Cloud Weather Temp
°C
Press
MSL
hPa
Rain since
9am
mm
Dir  Spd
kts
Gust
kts
Height
m
Period
s
Dir
22/11:30pm NE 13 19 - - - - 8 Cloudy - 23.1 1013.2 2.8
22/11:00pm NE 13 21 - - - - 8 Mostly cloudy - 23.1 1013.4 2.8
22/10:30pm NE 13 20 - - - - 8 Cloudy - 23.2 1013.4 2.8
22/10:00pm NE 12 20 - - - - 7 Cloudy - 23.1 1013.3 2.8
22/09:30pm NE 14 22 - - - - 7 Partly cloudy - 23.1 1013.0 2.8
22/09:00pm NE 14 21 - - - - 7 Cloudy - 23.0 1013.1 2.8
22/08:59pm NE 13 21 - - - - 7 Cloudy - 23.0 1013.1 2.8
22/08:40pm NE 13 19 - - - - 6 Partly cloudy - 22.9 1013.1 2.8
22/08:30pm NE 11 20 - - - - 7 Partly cloudy - 22.9 1013.1 2.8
22/08:29pm NE 12 20 - - - - 7 Cloudy - 22.9 1013.1 2.8
22/08:20pm NE 12 19 - - - - 7 Partly cloudy - 22.8 1013.1 2.8
22/08:00pm NE 13 20 - - - - 7 Cloudy Drizzle 22.8 1013.1 2.8
22/07:51pm NNE 13 19 - - - - 7 Cloudy - 22.8 1013.1 2.8
22/07:30pm NE 13 19 - - - - 6 Partly cloudy - 22.8 1012.7 2.8
22/07:23pm NE 14 25 - - - - 6 Partly cloudy - 22.8 1012.6 2.6
22/07:17pm NE 15 25 - - - - 6 Partly cloudy - 22.8 1012.5 2.6
22/07:00pm NE 13 19 - - - - 6 Partly cloudy - 22.7 1012.2 2.6
22/06:30pm NE 13 19 - - - - 6 - - 22.8 1012.0 2.2
22/06:00pm NE 15 21 - - - - 5 Partly cloudy - 22.7 1011.4 2.0
22/05:55pm NE 16 22 - - - - 5 Partly cloudy - 22.7 1011.3 2.0
22/05:30pm NE 12 19 - - - - 5 Partly cloudy - 22.8 1011.8 1.8
22/05:00pm NE 11 19 - - - - 6 Cloudy Rain 23.0 1012.1 1.4
22/04:30pm NNE 12 19 - - - - 6 Partly cloudy - 23.1 1011.8 1.2
22/04:21pm NNE 13 19 - - - - 6 Partly cloudy - 23.2 1011.8 1.0
22/04:20pm NNE 14 19 - - - - 7 Partly cloudy - 23.2 1011.8 1.0
22/04:16pm NNE 13 19 - - - - 7 Partly cloudy - 23.2 1011.8 1.0
22/04:15pm NNE 13 22 - - - - 7 Partly cloudy - 23.2 1011.8 1.0
22/04:03pm NNE 13 20 - - - - 6 Partly cloudy - 23.2 1011.7 1.0
22/04:00pm NNE 13 20 - - - - 7 Partly cloudy - 23.2 1011.8 1.0
22/03:59pm NNE 13 20 - - - - 7 Partly cloudy - 23.2 1011.8 1.0

Other formats

Comma delimited format used in spreadsheet applications
http://www.bom.gov.au/fwo/IDN60701/IDN60701.94996.axf

JavaScript Object Notation format (JSON) in row-major order
http://www.bom.gov.au/fwo/IDN60701/IDN60701.94996.json

Data quality

Most of these data are generated automatically and are frequently updated. Quality checks on data are not normally performed. It is possible for incorrect values to appear. Refer to information at About Latest Weather Observations and please check the disclaimer before using these data.